Time;durP1;ratioP1;P1;durP2;ratioP2;P2;SDS_P1;SDS_P2;PMS_P1;PMS_P2;Temp;Humidity;BMP_temperature;BMP_pressure;BME280_temperature;BME280_humidity;BME280_pressure;Samples;Min_cycle;Max_cycle;Signal;HPM_P1;HPM_P2
2023/09/12 00:01:09;;;;;;;9.93;6.65;;;18.50;55.10;;;;;;5016610;28;20115;-77
2023/09/12 00:03:35;;;;;;;8.15;6.30;;;18.50;55.20;;;;;;5015185;28;20061;-78
2023/09/12 00:06:03;;;;;;;9.20;6.43;;;18.50;55.30;;;;;;5020537;28;20029;-77
2023/09/12 00:08:29;;;;;;;9.07;6.22;;;18.50;55.30;;;;;;5034258;28;20041;-81
2023/09/12 00:11:06;;;;;;;8.55;6.32;;;18.50;55.90;;;;;;5032209;28;20076;-77
2023/09/12 00:13:32;;;;;;;9.05;6.40;;;18.40;55.20;;;;;;5016453;28;20047;-77
2023/09/12 00:15:58;;;;;;;8.13;6.18;;;18.50;55.30;;;;;;5028297;28;20037;-77
2023/09/12 00:18:24;;;;;;;8.73;6.35;;;18.50;55.40;;;;;;5024750;28;20025;-77
2023/09/12 00:20:50;;;;;;;9.23;6.18;;;18.40;55.40;;;;;;5025459;28;20455;-77
2023/09/12 00:23:16;;;;;;;10.13;6.32;;;18.40;55.50;;;;;;5034635;28;20026;-77
2023/09/12 00:25:42;;;;;;;11.25;6.45;;;18.40;55.50;;;;;;5020588;28;20429;-77
2023/09/12 00:28:07;;;;;;;10.32;6.70;;;18.40;55.60;;;;;;5034228;28;20037;-77
2023/09/12 00:30:33;;;;;;;9.63;6.90;;;18.40;55.60;;;;;;5035335;28;20034;-77
2023/09/12 00:32:59;;;;;;;8.82;6.70;;;18.40;55.60;;;;;;5035848;28;20025;-77
2023/09/12 00:35:24;;;;;;;9.93;7.15;;;18.40;55.60;;;;;;5021650;28;20092;-79
2023/09/12 00:37:50;;;;;;;10.07;7.15;;;18.40;55.60;;;;;;5033568;28;20033;-77
2023/09/12 00:40:15;;;;;;;10.52;7.53;;;18.40;55.70;;;;;;5034685;28;20027;-77
2023/09/12 00:42:41;;;;;;;11.15;7.95;;;18.40;55.80;;;;;;5021952;28;20022;-77
2023/09/12 00:45:07;;;;;;;12.00;8.45;;;18.40;55.80;;;;;;5015842;28;20022;-77
2023/09/12 00:47:33;;;;;;;11.43;8.02;;;18.30;55.80;;;;;;5029252;28;20388;-77
2023/09/12 00:50:00;;;;;;;11.68;8.40;;;18.30;55.90;;;;;;5034520;28;20486;-77
2023/09/12 00:52:27;;;;;;;11.55;8.32;;;18.30;56.00;;;;;;5033145;28;20025;-77
2023/09/12 00:54:54;;;;;;;10.63;7.80;;;18.30;56.10;;;;;;5026874;28;20036;-77
2023/09/12 00:57:21;;;;;;;13.27;8.75;;;18.30;56.10;;;;;;5021890;28;20022;-77
2023/09/12 00:59:49;;;;;;;13.55;9.40;;;18.30;56.20;;;;;;5033156;28;20025;-77
2023/09/12 01:02:15;;;;;;;11.45;8.55;;;18.30;56.30;;;;;;5015239;28;20040;-80
2023/09/12 01:04:42;;;;;;;11.77;9.25;;;18.30;56.40;;;;;;5014143;28;20113;-77
2023/09/12 01:07:07;;;;;;;13.73;9.57;;;18.30;56.40;;;;;;5025048;28;20023;-79
2023/09/12 01:09:33;;;;;;;13.10;8.95;;;18.30;56.50;;;;;;5026108;28;20041;-77
2023/09/12 01:12:02;;;;;;;12.38;8.88;;;18.30;56.60;;;;;;5015568;28;20026;-77
2023/09/12 01:14:31;;;;;;;12.35;8.40;;;18.30;56.60;;;;;;5021723;28;20057;-77
2023/09/12 01:16:58;;;;;;;13.13;8.60;;;18.30;56.60;;;;;;5034431;28;20361;-78
2023/09/12 01:19:24;;;;;;;11.27;7.88;;;18.30;56.70;;;;;;5014216;28;20034;-77
2023/09/12 01:22:38;;;;;;;11.48;8.43;;;18.40;56.80;;;;;;5013555;28;20060;-77
2023/09/12 01:25:04;;;;;;;12.00;8.07;;;18.30;56.90;;;;;;5013293;28;20052;-77
2023/09/12 01:27:42;;;;;;;11.68;8.18;;;18.30;56.70;;;;;;5028789;28;20033;-77
2023/09/12 01:30:10;;;;;;;9.55;7.25;;;18.30;56.90;;;;;;5033317;28;20036;-80
2023/09/12 01:32:37;;;;;;;10.35;7.35;;;18.30;56.80;;;;;;5014851;28;20036;-77
2023/09/12 01:35:03;;;;;;;9.35;6.63;;;18.20;56.80;;;;;;5013727;28;20030;-77
2023/09/12 01:37:32;;;;;;;8.88;6.72;;;18.20;56.90;;;;;;5015550;28;20510;-77
2023/09/12 01:39:58;;;;;;;9.07;6.38;;;18.10;57.00;;;;;;5013603;28;20026;-77
2023/09/12 01:42:26;;;;;;;9.93;6.60;;;18.10;57.00;;;;;;5028569;28;20033;-77
2023/09/12 01:44:56;;;;;;;11.15;6.50;;;18.10;57.10;;;;;;5013763;28;20030;-77
2023/09/12 01:47:23;;;;;;;8.25;6.05;;;18.10;57.10;;;;;;5015989;28;20428;-78
2023/09/12 01:49:53;;;;;;;9.27;6.57;;;18.10;57.10;;;;;;5017944;28;20069;-80
2023/09/12 01:52:19;;;;;;;6.78;5.60;;;18.00;57.00;;;;;;5013376;28;20021;-78
2023/09/12 01:54:47;;;;;;;7.57;5.63;;;18.00;57.10;;;;;;5022574;28;20037;-77
2023/09/12 01:57:14;;;;;;;9.15;5.90;;;18.00;57.10;;;;;;5020921;28;20037;-79
2023/09/12 01:59:40;;;;;;;7.63;5.75;;;18.00;57.20;;;;;;5032469;28;20420;-77
2023/09/12 02:02:06;;;;;;;7.00;5.20;;;18.00;57.10;;;;;;5034441;28;20033;-77
2023/09/12 02:04:32;;;;;;;7.97;5.70;;;18.00;57.00;;;;;;5028338;28;20034;-77
2023/09/12 02:06:58;;;;;;;8.70;5.65;;;18.00;57.00;;;;;;5024395;28;20379;-77
2023/09/12 02:09:24;;;;;;;10.02;4.97;;;18.00;57.00;;;;;;5015962;28;20403;-77
2023/09/12 02:11:51;;;;;;;7.28;5.38;;;18.00;57.00;;;;;;5012527;28;20030;-77
2023/09/12 02:14:18;;;;;;;9.50;5.97;;;18.00;57.00;;;;;;5014317;28;20032;-77
2023/09/12 02:16:44;;;;;;;9.85;6.03;;;18.00;57.00;;;;;;5026655;28;20096;-77
2023/09/12 02:19:09;;;;;;;7.25;5.43;;;18.00;57.00;;;;;;5022879;28;20030;-77
2023/09/12 02:21:35;;;;;;;8.15;5.10;;;18.00;57.00;;;;;;5013142;28;20034;-76
2023/09/12 02:24:00;;;;;;;7.32;5.25;;;18.10;56.90;;;;;;5023155;28;20128;-76
2023/09/12 02:26:26;;;;;;;6.95;4.80;;;18.10;56.90;;;;;;5028886;28;20079;-76
2023/09/12 02:28:52;;;;;;;6.75;4.93;;;18.10;56.80;;;;;;5017907;28;20037;-76
2023/09/12 02:31:17;;;;;;;8.43;5.07;;;18.00;56.80;;;;;;5025232;28;20065;-77
2023/09/12 02:33:43;;;;;;;6.80;5.20;;;18.00;57.30;;;;;;5024609;28;20017;-78
2023/09/12 02:36:09;;;;;;;8.05;5.93;;;18.10;56.80;;;;;;5019044;28;20046;-77
2023/09/12 02:38:34;;;;;;;10.32;5.50;;;18.10;56.80;;;;;;5017956;28;20072;-76
2023/09/12 02:41:01;;;;;;;7.78;5.80;;;18.10;56.80;;;;;;5017293;28;20025;-78
2023/09/12 02:43:27;;;;;;;6.82;5.30;;;18.00;56.80;;;;;;5020287;28;20036;-76
2023/09/12 02:45:53;;;;;;;8.27;5.88;;;18.00;56.80;;;;;;5023557;28;20026;-78
2023/09/12 02:48:18;;;;;;;7.82;5.53;;;18.10;56.80;;;;;;5031896;28;20428;-76
2023/09/12 02:50:45;;;;;;;6.70;5.10;;;18.00;56.80;;;;;;5028611;28;20060;-76
2023/09/12 02:53:10;;;;;;;8.15;5.40;;;18.00;56.80;;;;;;5020082;28;20021;-77
2023/09/12 02:55:40;;;;;;;8.30;5.50;;;18.00;56.90;;;;;;5022264;28;20482;-77
2023/09/12 02:58:05;;;;;;;6.97;5.03;;;18.00;56.80;;;;;;5014902;28;20387;-76
2023/09/12 03:00:31;;;;;;;6.10;4.50;;;18.00;56.80;;;;;;5026711;28;20101;-77
2023/09/12 03:02:56;;;;;;;6.63;4.40;;;18.00;56.70;;;;;;5021199;28;20041;-76
2023/09/12 03:05:22;;;;;;;6.95;4.22;;;18.00;56.70;;;;;;5032274;28;20025;-76
2023/09/12 03:07:48;;;;;;;6.95;4.78;;;18.00;56.70;;;;;;5021050;28;20472;-77
2023/09/12 03:10:14;;;;;;;6.10;4.30;;;18.00;56.60;;;;;;5017174;28;20021;-77
2023/09/12 03:12:40;;;;;;;7.78;4.57;;;18.00;56.60;;;;;;5033391;28;20033;-76
2023/09/12 03:15:06;;;;;;;7.75;5.32;;;18.00;56.70;;;;;;5033179;28;20048;-76
2023/09/12 03:17:32;;;;;;;9.07;5.78;;;18.00;56.70;;;;;;5033281;28;20025;-76
2023/09/12 03:19:58;;;;;;;7.35;5.47;;;18.00;56.70;;;;;;5022581;28;20092;-76
2023/09/12 03:22:24;;;;;;;8.02;5.50;;;18.00;56.80;;;;;;5013671;28;20381;-76
2023/09/12 03:24:49;;;;;;;9.45;5.50;;;17.90;56.80;;;;;;5013198;28;20068;-76
2023/09/12 03:27:15;;;;;;;7.13;4.75;;;17.90;56.70;;;;;;5012139;28;20034;-76
2023/09/12 03:29:41;;;;;;;7.03;5.07;;;17.90;56.70;;;;;;5022844;28;20072;-77
2023/09/12 03:32:06;;;;;;;6.53;4.93;;;17.90;56.80;;;;;;5035017;28;20160;-76
2023/09/12 03:34:32;;;;;;;6.40;5.10;;;17.80;56.80;;;;;;5036919;28;20392;-76
2023/09/12 03:36:58;;;;;;;7.75;5.43;;;17.80;56.80;;;;;;5036632;28;20046;-76
2023/09/12 03:39:23;;;;;;;8.05;4.78;;;17.80;56.80;;;;;;5036245;28;20025;-76
2023/09/12 03:41:49;;;;;;;21.52;14.95;;;17.80;56.80;;;;;;5035815;28;20483;-77
2023/09/12 03:44:14;;;;;;;20.83;15.20;;;17.80;56.80;;;;;;5032340;28;20048;-76
2023/09/12 03:46:40;;;;;;;13.45;10.07;;;17.80;56.90;;;;;;5017459;28;20478;-76
2023/09/12 03:49:06;;;;;;;10.65;8.52;;;17.80;56.80;;;;;;5016361;28;20045;-76
2023/09/12 03:51:34;;;;;;;9.52;7.28;;;17.70;56.80;;;;;;5026163;28;20029;-76
2023/09/12 03:54:00;;;;;;;9.18;6.53;;;17.70;56.90;;;;;;5034906;28;20021;-76
2023/09/12 03:56:26;;;;;;;8.18;6.05;;;17.70;57.00;;;;;;5022002;28;20036;-76
2023/09/12 03:58:51;;;;;;;9.35;5.20;;;17.70;57.00;;;;;;5027395;28;20463;-77
2023/09/12 04:01:17;;;;;;;6.50;5.32;;;17.70;57.00;;;;;;5027981;28;20026;-78
2023/09/12 04:03:47;;;;;;;8.05;5.20;;;17.70;57.00;;;;;;5024774;28;20028;-79
2023/09/12 04:06:12;;;;;;;24.15;16.25;;;17.70;57.00;;;;;;5031662;28;20025;-78
2023/09/12 04:08:38;;;;;;;18.15;13.73;;;17.70;57.00;;;;;;5016110;28;20395;-76
2023/09/12 04:11:04;;;;;;;18.40;11.73;;;17.70;57.00;;;;;;5019967;28;20028;-76
2023/09/12 04:13:30;;;;;;;17.00;11.82;;;17.70;57.00;;;;;;5023787;28;20118;-80
2023/09/12 04:15:56;;;;;;;21.77;15.75;;;17.80;57.10;;;;;;5034901;28;20455;-76
2023/09/12 04:18:21;;;;;;;19.85;14.93;;;17.80;57.10;;;;;;5035698;28;20029;-78
2023/09/12 04:20:47;;;;;;;14.38;9.68;;;17.80;57.10;;;;;;5034616;28;20053;-76
2023/09/12 04:23:12;;;;;;;11.55;8.48;;;17.80;57.00;;;;;;5035862;28;20038;-76
2023/09/12 04:25:41;;;;;;;9.90;7.50;;;17.80;57.00;;;;;;5033643;28;20040;-80
2023/09/12 04:28:07;;;;;;;9.85;6.68;;;17.80;56.90;;;;;;5032867;28;20502;-84
2023/09/12 04:30:32;;;;;;;11.77;6.70;;;17.80;57.00;;;;;;5023902;28;20030;-75
2023/09/12 04:32:58;;;;;;;7.90;6.03;;;17.80;57.00;;;;;;5020452;28;20032;-79
2023/09/12 04:35:25;;;;;;;9.00;6.10;;;17.80;57.00;;;;;;5016601;28;20101;-77
2023/09/12 04:37:50;;;;;;;8.02;5.32;;;17.80;57.10;;;;;;5018307;28;20385;-81
2023/09/12 04:40:16;;;;;;;8.43;6.00;;;17.80;57.10;;;;;;5034881;28;20097;-76
2023/09/12 04:42:41;;;;;;;8.02;5.00;;;17.80;57.10;;;;;;5027415;28;20116;-78
2023/09/12 04:45:07;;;;;;;8.48;5.07;;;17.80;57.20;;;;;;5015584;28;20034;-74
2023/09/12 04:47:33;;;;;;;5.93;5.03;;;17.80;57.10;;;;;;5014782;28;20033;-83
2023/09/12 04:50:00;;;;;;;7.50;4.90;;;17.80;57.20;;;;;;5016167;28;20038;-81
2023/09/12 04:52:26;;;;;;;5.95;4.80;;;17.80;57.20;;;;;;5015099;28;20085;-80
2023/09/12 04:54:51;;;;;;;6.55;4.72;;;17.80;57.20;;;;;;5031749;28;20029;-79
2023/09/12 04:57:17;;;;;;;6.28;4.93;;;17.80;57.20;;;;;;5022498;28;20017;-80
2023/09/12 04:59:43;;;;;;;7.13;4.70;;;17.80;57.20;;;;;;5035429;28;20508;-79
2023/09/12 05:02:08;;;;;;;9.02;5.35;;;17.90;57.30;;;;;;5031301;28;20040;-82
2023/09/12 05:04:34;;;;;;;13.57;10.38;;;17.90;57.30;;;;;;5032101;28;20468;-82
2023/09/12 05:06:59;;;;;;;13.68;9.50;;;17.90;57.20;;;;;;5033428;28;20167;-82
2023/09/12 05:09:25;;;;;;;11.30;8.00;;;18.00;57.30;;;;;;5033452;28;20484;-82
2023/09/12 05:11:51;;;;;;;9.50;6.68;;;18.00;57.30;;;;;;5034753;28;20079;-82
2023/09/12 05:14:16;;;;;;;8.32;6.28;;;18.00;57.30;;;;;;5034085;28;20071;-82
2023/09/12 05:16:42;;;;;;;8.48;6.10;;;18.00;57.30;;;;;;5033417;28;20029;-82
2023/09/12 05:19:07;;;;;;;7.95;5.53;;;18.10;57.30;;;;;;5033607;28;20061;-82
2023/09/12 05:21:33;;;;;;;8.07;5.10;;;18.10;57.30;;;;;;5034489;28;20045;-82
2023/09/12 05:23:59;;;;;;;7.72;5.28;;;18.20;57.30;;;;;;5031251;28;20480;-82
2023/09/12 05:26:24;;;;;;;8.40;4.85;;;18.20;57.30;;;;;;5015010;28;20076;-82
2023/09/12 05:28:50;;;;;;;134.35;103.50;;;18.30;57.40;;;;;;5014438;28;20105;-74
2023/09/12 05:31:16;;;;;;;12.23;9.82;;;18.30;57.40;;;;;;5014721;28;20041;-71
2023/09/12 05:33:41;;;;;;;8.38;5.88;;;18.30;57.50;;;;;;5021556;28;20132;-84
2023/09/12 05:36:07;;;;;;;8.45;5.68;;;18.30;57.60;;;;;;5026057;28;20057;-86
2023/09/12 05:38:32;;;;;;;9.18;6.03;;;18.40;57.80;;;;;;5043460;28;20130;-84
2023/09/12 05:40:59;;;;;;;6.70;5.20;;;18.40;57.80;;;;;;5042808;28;20115;-82
2023/09/12 05:43:25;;;;;;;8.35;5.50;;;18.50;57.70;;;;;;5038185;28;20041;-84
2023/09/12 05:45:51;;;;;;;7.18;5.50;;;18.60;57.70;;;;;;5019516;28;20476;-83
2023/09/12 05:48:17;;;;;;;11.80;5.60;;;18.70;57.50;;;;;;5015295;28;20034;-83
2023/09/12 05:50:42;;;;;;;8.40;5.65;;;18.80;57.30;;;;;;5014355;28;20427;-83
2023/09/12 05:53:08;;;;;;;7.70;5.78;;;18.80;57.30;;;;;;5026125;28;20075;-83
2023/09/12 05:55:34;;;;;;;9.02;5.90;;;18.90;57.30;;;;;;5018099;28;20463;-85
2023/09/12 05:57:59;;;;;;;7.72;5.40;;;18.90;57.30;;;;;;5014737;28;20061;-84
2023/09/12 06:00:26;;;;;;;8.77;5.30;;;19.00;57.40;;;;;;5014495;28;20026;-84
2023/09/12 06:02:51;;;;;;;7.13;4.97;;;19.10;57.30;;;;;;5012970;28;20365;-82
2023/09/12 06:05:17;;;;;;;7.10;5.28;;;19.20;57.30;;;;;;5014115;28;20033;-83
2023/09/12 06:07:43;;;;;;;7.65;5.35;;;19.20;57.20;;;;;;5040647;28;20068;-84
2023/09/12 06:10:09;;;;;;;10.98;5.15;;;19.20;57.20;;;;;;5054566;28;20108;-84
2023/09/12 06:12:36;;;;;;;9.52;6.00;;;19.30;57.20;;;;;;5043010;28;20029;-83
2023/09/12 06:15:05;;;;;;;8.75;6.13;;;19.30;57.30;;;;;;5015334;28;20033;-84
2023/09/12 06:17:31;;;;;;;7.43;5.10;;;19.30;57.40;;;;;;5015788;28;20033;-84
2023/09/12 06:19:57;;;;;;;5.60;4.50;;;19.40;57.40;;;;;;5013042;28;20460;-85
2023/09/12 06:22:25;;;;;;;8.73;5.57;;;19.50;57.50;;;;;;5014052;28;20022;-83
2023/09/12 06:24:52;;;;;;;56.95;41.97;;;19.60;57.50;;;;;;5035906;28;20028;-82
2023/09/12 06:27:18;;;;;;;8.10;5.78;;;19.70;57.40;;;;;;5030702;28;20407;-84
2023/09/12 06:29:48;;;;;;;7.72;5.50;;;19.80;57.40;;;;;;5013669;28;20037;-78
2023/09/12 06:32:15;;;;;;;8.35;5.53;;;19.90;57.30;;;;;;5029520;28;20068;-79
2023/09/12 06:34:41;;;;;;;6.90;5.28;;;20.00;57.40;;;;;;5020594;28;20034;-77
2023/09/12 06:37:06;;;;;;;7.60;5.13;;;20.10;57.40;;;;;;5038776;28;20045;-79
2023/09/12 06:39:32;;;;;;;9.52;5.72;;;20.20;57.40;;;;;;5042976;28;20171;-77
2023/09/12 06:41:57;;;;;;;7.07;5.22;;;20.30;57.40;;;;;;5033724;28;20029;-78
2023/09/12 06:44:23;;;;;;;8.32;4.93;;;20.40;57.30;;;;;;5047993;28;20036;-79
2023/09/12 06:46:49;;;;;;;9.43;7.45;;;20.50;57.30;;;;;;5053187;28;20107;-79
2023/09/12 06:49:14;;;;;;;11.15;9.45;;;20.50;57.20;;;;;;5041911;28;20044;-77
2023/09/12 06:51:40;;;;;;;42.38;21.52;;;20.60;57.00;;;;;;5013698;28;20026;-78
2023/09/12 06:54:06;;;;;;;47.90;20.17;;;20.70;56.90;;;;;;5013815;28;20030;-77
2023/09/12 06:56:32;;;;;;;15.38;9.70;;;20.80;57.10;;;;;;5014824;28;20380;-78
2023/09/12 06:58:59;;;;;;;37.80;18.77;;;20.90;56.80;;;;;;5013202;28;20045;-81
2023/09/12 07:01:25;;;;;;;29.23;13.80;;;21.00;56.90;;;;;;5013649;28;20109;-80
2023/09/12 07:03:53;;;;;;;15.35;9.85;;;21.00;56.80;;;;;;5013654;28;20058;-79
2023/09/12 07:06:19;;;;;;;21.50;12.27;;;21.10;56.60;;;;;;5014428;28;20033;-71
2023/09/12 07:08:45;;;;;;;15.57;9.45;;;21.20;56.60;;;;;;5020472;28;20114;-71
2023/09/12 07:11:10;;;;;;;16.70;10.75;;;21.20;56.30;;;;;;5017340;28;20118;-69
2023/09/12 07:13:36;;;;;;;15.77;9.55;;;21.30;56.40;;;;;;5028073;28;20032;-69
2023/09/12 07:16:05;;;;;;;12.80;8.23;;;21.40;56.40;;;;;;5037129;28;20025;-69
2023/09/12 07:18:34;;;;;;;10.55;7.63;;;21.40;56.10;;;;;;5024970;28;20088;-70
2023/09/12 07:21:04;;;;;;;9.63;6.55;;;21.50;56.00;;;;;;5051940;28;20444;-70
2023/09/12 07:23:30;;;;;;;11.30;6.05;;;21.50;56.00;;;;;;5055591;28;20043;-70
2023/09/12 07:25:59;;;;;;;11.02;5.88;;;21.60;55.80;;;;;;5044490;28;20033;-70
2023/09/12 07:28:28;;;;;;;7.10;5.55;;;21.60;55.70;;;;;;5033246;28;20069;-70
2023/09/12 07:30:57;;;;;;;7.68;5.30;;;21.70;55.70;;;;;;5036792;28;20112;-70
2023/09/12 07:33:22;;;;;;;6.68;4.63;;;21.80;55.60;;;;;;5036787;28;20068;-70
2023/09/12 07:35:51;;;;;;;8.25;4.90;;;21.80;55.20;;;;;;5036565;28;20069;-71
2023/09/12 07:38:17;;;;;;;5.88;4.72;;;21.90;55.10;;;;;;5027883;28;20439;-70
2023/09/12 07:40:42;;;;;;;7.10;4.70;;;21.90;54.90;;;;;;5016878;28;20022;-71
2023/09/12 07:43:09;;;;;;;6.35;4.50;;;22.00;54.90;;;;;;5016538;28;20030;-72
2023/09/12 07:45:37;;;;;;;7.65;5.43;;;22.00;54.80;;;;;;5015800;28;20409;-71
2023/09/12 07:48:07;;;;;;;7.82;4.65;;;22.10;54.60;;;;;;5016792;28;20030;-72
2023/09/12 07:50:33;;;;;;;9.52;5.53;;;22.10;54.40;;;;;;5015429;28;20030;-71
2023/09/12 07:52:58;;;;;;;7.78;4.78;;;22.10;54.10;;;;;;5016487;28;20087;-71
2023/09/12 07:55:24;;;;;;;6.75;4.55;;;22.20;54.00;;;;;;5048148;28;20368;-71
2023/09/12 07:57:50;;;;;;;7.40;4.90;;;22.20;54.10;;;;;;5049442;28;20052;-70
2023/09/12 08:00:16;;;;;;;10.32;5.07;;;22.30;54.20;;;;;;5016226;28;20463;-70
2023/09/12 08:02:42;;;;;;;10.07;4.78;;;22.30;54.20;;;;;;5029349;28;20035;-70
2023/09/12 08:05:08;;;;;;;8.23;4.55;;;22.30;54.10;;;;;;5034939;28;20104;-70
2023/09/12 08:07:34;;;;;;;10.95;5.50;;;22.40;54.10;;;;;;5017091;28;20117;-70
2023/09/12 08:10:00;;;;;;;12.23;8.05;;;22.40;53.90;;;;;;5020397;28;20399;-69
2023/09/12 08:12:27;;;;;;;7.50;4.65;;;22.40;53.70;;;;;;5024422;28;20029;-71
2023/09/12 08:14:56;;;;;;;6.90;4.63;;;22.40;53.40;;;;;;5018410;28;20034;-70
2023/09/12 08:17:22;;;;;;;41.80;29.75;;;22.50;53.50;;;;;;5016863;28;20037;-73
2023/09/12 08:19:48;;;;;;;8.20;5.22;;;22.50;53.40;;;;;;5025274;28;20032;-72
2023/09/12 08:22:14;;;;;;;10.25;5.13;;;22.60;53.40;;;;;;5025158;28;20021;-71
2023/09/12 08:24:40;;;;;;;6.50;4.10;;;22.60;53.20;;;;;;5021156;28;20030;-75
2023/09/12 08:27:06;;;;;;;7.97;4.30;;;22.60;53.20;;;;;;5015821;28;20034;-74
2023/09/12 08:29:33;;;;;;;8.93;4.18;;;22.70;53.10;;;;;;5015122;28;20044;-74
2023/09/12 08:32:00;;;;;;;7.97;4.00;;;22.70;53.10;;;;;;5015127;28;20033;-74
2023/09/12 08:34:26;;;;;;;6.40;3.42;;;22.70;53.10;;;;;;5015599;28;20033;-74
2023/09/12 08:36:51;;;;;;;4.97;3.17;;;22.70;53.00;;;;;;5014378;28;20428;-74
2023/09/12 08:39:26;;;;;;;7.10;3.47;;;22.70;52.90;;;;;;5014274;28;20033;-74
2023/09/12 08:41:53;;;;;;;4.13;3.13;;;22.70;52.90;;;;;;5015890;28;20084;-74
2023/09/12 08:44:20;;;;;;;7.25;3.67;;;22.70;52.90;;;;;;5015735;28;20456;-74
2023/09/12 08:46:46;;;;;;;5.60;3.30;;;22.70;52.90;;;;;;5015727;28;20030;-73
2023/09/12 08:49:12;;;;;;;6.60;3.42;;;22.70;52.90;;;;;;5015469;28;20061;-75
2023/09/12 08:51:42;;;;;;;6.32;3.47;;;22.70;53.00;;;;;;5015394;28;20468;-74
2023/09/12 08:54:09;;;;;;;4.03;3.00;;;22.70;52.90;;;;;;5015138;28;20022;-75
2023/09/12 08:56:39;;;;;;;4.55;3.15;;;22.70;52.80;;;;;;5014241;28;20033;-74
2023/09/12 08:59:05;;;;;;;4.22;2.92;;;22.80;52.80;;;;;;5014382;28;20073;-75
2023/09/12 09:01:32;;;;;;;6.30;2.95;;;22.80;52.80;;;;;;5015166;28;20564;-75
2023/09/12 09:03:57;;;;;;;4.82;3.08;;;22.80;52.80;;;;;;5015447;28;20487;-75
2023/09/12 09:06:24;;;;;;;5.38;3.17;;;22.80;52.80;;;;;;5015169;28;20034;-74
2023/09/12 09:08:50;;;;;;;4.68;3.08;;;22.80;52.80;;;;;;5014080;28;20030;-75
2023/09/12 09:11:16;;;;;;;5.30;3.08;;;22.80;52.80;;;;;;5015292;28;20022;-75
2023/09/12 09:13:42;;;;;;;3.58;2.85;;;22.80;52.80;;;;;;5014215;28;20087;-74
2023/09/12 09:16:16;;;;;;;5.15;2.70;;;22.80;52.70;;;;;;5014906;28;20105;-74
2023/09/12 09:19:01;;;;;;;3.83;3.05;;;22.90;52.80;;;;;;5013670;28;20068;-74
2023/09/12 09:21:32;;;;;;;3.80;2.90;;;22.90;52.80;;;;;;5014258;28;20369;-75
2023/09/12 09:24:04;;;;;;;4.47;3.10;;;22.90;52.80;;;;;;5013544;28;20026;-76
2023/09/12 09:26:50;;;;;;;3.67;2.92;;;22.90;52.70;;;;;;5013845;28;20026;-74
2023/09/12 09:29:18;;;;;;;3.33;2.53;;;22.90;52.60;;;;;;5013828;28;20095;-73
2023/09/12 09:31:49;;;;;;;3.00;2.70;;;22.90;52.70;;;;;;5014737;28;20064;-74
2023/09/12 09:34:16;;;;;;;5.55;2.60;;;22.90;52.60;;;;;;5013707;28;20431;-74
2023/09/12 09:36:49;;;;;;;2.95;2.63;;;22.90;52.60;;;;;;5013169;28;20103;-75
2023/09/12 09:39:17;;;;;;;2.95;2.60;;;23.00;52.60;;;;;;5025054;28;20041;-75
2023/09/12 09:41:48;;;;;;;2.85;2.50;;;23.00;52.60;;;;;;5034462;28;20034;-74
2023/09/12 09:44:14;;;;;;;4.32;2.38;;;23.00;52.60;;;;;;5033127;28;20029;-74
2023/09/12 09:46:43;;;;;;;2.50;2.20;;;23.00;52.40;;;;;;5034398;28;20025;-75
2023/09/12 09:49:16;;;;;;;3.78;2.50;;;23.00;52.40;;;;;;5034032;28;20467;-74
2023/09/12 09:51:42;;;;;;;3.38;2.25;;;23.10;52.40;;;;;;5032899;28;20036;-77
2023/09/12 09:54:08;;;;;;;2.47;2.10;;;23.10;52.40;;;;;;5032935;28;20529;-75
2023/09/12 09:56:46;;;;;;;4.47;2.30;;;23.10;52.30;;;;;;5032563;28;20025;-75
2023/09/12 09:59:16;;;;;;;2.38;2.17;;;23.10;52.20;;;;;;5033868;28;20027;-75
2023/09/12 10:01:43;;;;;;;2.25;2.05;;;23.10;52.10;;;;;;5034502;28;20079;-75
2023/09/12 10:04:09;;;;;;;2.00;1.90;;;23.10;52.10;;;;;;5032891;28;20079;-76
2023/09/12 10:06:37;;;;;;;2.22;2.03;;;23.20;52.00;;;;;;5032738;28;20525;-75
2023/09/12 10:09:06;;;;;;;2.10;1.90;;;23.20;52.00;;;;;;5032064;28;20529;-76
2023/09/12 10:11:33;;;;;;;2.20;2.00;;;23.20;51.90;;;;;;5034631;28;20340;-75
2023/09/12 10:14:02;;;;;;;2.72;2.10;;;23.20;51.90;;;;;;5034263;28;20355;-75
2023/09/12 10:16:36;;;;;;;2.63;2.00;;;23.30;51.90;;;;;;5033985;28;20115;-75
2023/09/12 10:19:13;;;;;;;2.10;1.90;;;23.30;51.70;;;;;;5033747;28;20040;-76
2023/09/12 10:21:59;;;;;;;1.80;1.70;;;23.30;51.50;;;;;;5032343;28;20040;-75
2023/09/12 10:24:27;;;;;;;1.77;1.67;;;23.30;51.50;;;;;;5032446;28;20030;-75
2023/09/12 10:26:54;;;;;;;1.85;1.75;;;23.30;51.40;;;;;;5032057;28;20041;-75
2023/09/12 10:29:22;;;;;;;2.38;2.03;;;23.40;51.30;;;;;;5033488;28;20452;-75
2023/09/12 10:31:48;;;;;;;2.60;2.10;;;23.40;51.30;;;;;;5033303;28;20036;-75
2023/09/12 10:34:16;;;;;;;2.22;1.95;;;23.40;51.30;;;;;;5032550;28;20477;-76
2023/09/12 10:36:43;;;;;;;2.40;2.10;;;23.40;51.20;;;;;;5031506;28;20057;-75
2023/09/12 10:39:11;;;;;;;2.08;1.90;;;23.40;51.20;;;;;;5031891;28;20488;-74
2023/09/12 10:41:38;;;;;;;1.73;1.58;;;23.50;51.20;;;;;;5038445;28;20048;-75
2023/09/12 10:44:12;;;;;;;1.88;1.77;;;23.50;51.00;;;;;;5038698;28;20403;-75
2023/09/12 10:46:39;;;;;;;;;;;23.50;50.80;;;;;;5040350;28;20437;-74
2023/09/12 10:49:13;;;;;;;2.90;1.92;;;23.50;50.50;;;;;;5039370;28;19951;-75
2023/09/12 10:51:43;;;;;;;2.05;1.80;;;23.50;50.70;;;;;;5039951;28;20049;-74
2023/09/12 10:54:13;;;;;;;2.15;1.90;;;23.50;50.70;;;;;;5039914;28;20033;-75
2023/09/12 10:56:39;;;;;;;2.00;1.80;;;23.60;50.60;;;;;;5038180;28;20093;-76
2023/09/12 10:59:06;;;;;;;1.73;1.63;;;23.60;50.40;;;;;;5039617;28;20037;-75
2023/09/12 11:01:33;;;;;;;1.95;1.75;;;23.60;50.30;;;;;;5040086;28;20021;-75
2023/09/12 11:04:19;;;;;;;3.55;1.88;;;23.70;50.30;;;;;;5038749;28;20060;-71
2023/09/12 11:06:48;;;;;;;2.08;1.88;;;23.70;50.10;;;;;;5038857;28;20095;-78
2023/09/12 11:09:16;;;;;;;1.75;1.65;;;23.70;50.00;;;;;;5038482;28;20384;-75
2023/09/12 11:12:09;;;;;;;2.08;1.98;;;23.80;49.90;;;;;;5040230;28;20180;-74
2023/09/12 11:14:37;;;;;;;2.30;1.90;;;23.80;49.70;;;;;;5039776;28;20059;-75
2023/09/12 11:17:10;;;;;;;1.80;1.70;;;23.80;49.60;;;;;;5039182;28;20434;-75
2023/09/12 11:19:49;;;;;;;2.05;1.85;;;23.90;49.50;;;;;;5039745;28;20079;-75
2023/09/12 11:22:30;;;;;;;3.42;1.80;;;23.90;49.50;;;;;;5038044;28;20031;-76
2023/09/12 11:24:57;;;;;;;2.03;1.85;;;23.90;49.50;;;;;;5039799;28;20091;-74
2023/09/12 11:28:02;;;;;;;2.20;2.00;;;23.90;49.50;;;;;;5038474;28;20031;-76
2023/09/12 11:30:31;;;;;;;1.90;1.80;;;23.90;49.40;;;;;;5039731;28;20045;-75
2023/09/12 11:32:57;;;;;;;2.17;1.83;;;23.90;49.40;;;;;;5039572;28;20104;-75
2023/09/12 11:35:28;;;;;;;2.88;2.08;;;24.00;49.40;;;;;;5039440;28;20092;-73
2023/09/12 11:37:56;;;;;;;2.58;2.38;;;24.00;49.20;;;;;;5038295;28;20025;-75
2023/09/12 11:40:46;;;;;;;3.08;2.20;;;24.00;49.10;;;;;;5034888;28;20033;-79
2023/09/12 11:43:25;;;;;;;2.55;2.05;;;24.10;49.00;;;;;;5032798;28;20041;-82
2023/09/12 11:45:53;;;;;;;2.38;2.03;;;24.10;48.90;;;;;;5025350;28;20029;-82
2023/09/12 11:48:20;;;;;;;2.50;2.00;;;24.10;49.00;;;;;;5036666;28;20040;-81
2023/09/12 11:50:56;;;;;;;2.78;2.42;;;24.10;48.90;;;;;;5026807;28;20042;-78
2023/09/12 11:53:25;;;;;;;2.25;2.05;;;24.10;49.00;;;;;;5027182;28;20033;-79
2023/09/12 11:55:57;;;;;;;2.88;1.95;;;24.20;48.90;;;;;;5024295;28;20029;-78
2023/09/12 11:58:24;;;;;;;2.40;2.10;;;24.20;48.80;;;;;;5024770;28;20375;-76
2023/09/12 12:00:52;;;;;;;2.20;2.00;;;24.30;48.80;;;;;;5038014;28;20549;-75
2023/09/12 12:03:24;;;;;;;2.25;2.05;;;24.30;48.70;;;;;;5028113;28;20034;-75
2023/09/12 12:05:51;;;;;;;2.30;2.08;;;24.40;48.70;;;;;;5032478;28;20057;-76
2023/09/12 12:08:18;;;;;;;2.92;1.90;;;24.50;48.70;;;;;;5034673;28;20498;-75
2023/09/12 12:10:44;;;;;;;3.92;2.00;;;24.50;48.70;;;;;;5034103;28;20402;-76
2023/09/12 12:13:17;;;;;;;2.00;1.80;;;24.60;48.70;;;;;;5016448;28;20030;-76
2023/09/12 12:15:42;;;;;;;3.03;2.20;;;24.60;48.60;;;;;;5014929;28;20056;-76
2023/09/12 12:18:08;;;;;;;3.15;2.17;;;24.60;48.50;;;;;;5033023;28;20038;-76
2023/09/12 12:20:34;;;;;;;2.72;1.90;;;24.70;48.50;;;;;;5035900;28;20059;-76
2023/09/12 12:23:00;;;;;;;3.85;2.10;;;24.70;48.30;;;;;;5015522;28;20468;-76
2023/09/12 12:25:25;;;;;;;2.45;1.95;;;24.80;48.20;;;;;;5016216;28;20038;-75
2023/09/12 12:27:51;;;;;;;2.45;1.90;;;24.80;48.10;;;;;;5014705;28;20037;-76
2023/09/12 12:30:18;;;;;;;2.25;2.00;;;24.80;47.90;;;;;;5030769;28;20047;-76
2023/09/12 12:32:51;;;;;;;2.63;2.00;;;24.90;47.80;;;;;;5055671;28;20040;-77
2023/09/12 12:35:22;;;;;;;4.10;2.10;;;24.90;47.70;;;;;;5056124;28;20032;-77
2023/09/12 12:37:58;;;;;;;4.13;2.05;;;25.00;47.70;;;;;;5045426;28;20396;-75
2023/09/12 12:40:25;;;;;;;2.47;2.00;;;25.10;47.50;;;;;;5014223;28;20541;-75
2023/09/12 12:42:50;;;;;;;2.20;2.00;;;25.10;47.40;;;;;;5017221;28;20022;-74
2023/09/12 12:45:18;;;;;;;2.55;2.30;;;25.20;47.30;;;;;;5031456;28;20383;-76